createdAt,value
2022-08-07T00:02:36.132Z,3.80
2022-08-07T00:04:15.507Z,3.80
2022-08-07T00:06:51.389Z,4.40
2022-08-07T00:09:22.611Z,4.00
2022-08-07T00:11:55.323Z,4.10
2022-08-07T00:14:30.119Z,3.80
2022-08-07T00:17:01.872Z,4.10
2022-08-07T00:19:34.070Z,3.80
2022-08-07T00:22:24.838Z,3.60
2022-08-07T00:25:15.732Z,4.10
2022-08-07T00:27:52.307Z,4.30
2022-08-07T00:30:27.364Z,3.80
2022-08-07T00:32:58.171Z,4.30
2022-08-07T00:35:30.310Z,4.00
2022-08-07T00:37:59.618Z,3.70
2022-08-07T00:40:36.311Z,3.50
2022-08-07T00:43:59.553Z,4.70
2022-08-07T00:46:00.244Z,3.80
2022-08-07T00:48:31.979Z,4.00
2022-08-07T00:51:03.036Z,4.20
2022-08-07T00:53:38.808Z,3.70
2022-08-07T00:56:18.845Z,4.50
2022-08-07T00:58:49.670Z,4.70
2022-08-07T01:01:20.710Z,3.90
2022-08-07T01:03:56.903Z,3.90
2022-08-07T01:06:30.002Z,3.90
2022-08-07T01:09:01.233Z,3.90
2022-08-07T01:12:23.647Z,3.70
2022-08-07T01:16:57.699Z,3.70
2022-08-07T01:19:32.182Z,3.30
2022-08-07T01:22:03.136Z,3.90
2022-08-07T01:24:32.773Z,4.90
2022-08-07T01:27:01.413Z,4.30
2022-08-07T01:29:31.381Z,4.10
2022-08-07T01:32:05.224Z,3.60
2022-08-07T01:34:34.436Z,3.20
2022-08-07T01:37:02.255Z,3.70
2022-08-07T01:39:41.280Z,3.90
2022-08-07T01:42:39.640Z,3.70
2022-08-07T01:45:10.029Z,3.60
2022-08-07T01:48:19.745Z,4.20
2022-08-07T01:50:40.399Z,3.70
2022-08-07T01:53:20.832Z,3.60
2022-08-07T01:55:55.637Z,4.00
2022-08-07T01:58:29.978Z,4.10
2022-08-07T02:01:09.924Z,3.60
2022-08-07T02:06:36.145Z,3.90
2022-08-07T02:09:07.854Z,3.50
2022-08-07T02:12:04.861Z,3.50
2022-08-07T02:14:40.571Z,3.60
2022-08-07T02:17:13.194Z,3.20
2022-08-07T02:20:07.016Z,3.60
2022-08-07T02:22:41.444Z,3.20
2022-08-07T02:25:18.270Z,3.70
2022-08-07T02:27:51.250Z,3.70
2022-08-07T02:30:21.135Z,3.20
2022-08-07T02:33:03.862Z,3.40
2022-08-07T02:36:29.121Z,3.40
2022-08-07T02:38:32.907Z,3.40
2022-08-07T02:41:03.984Z,3.10
2022-08-07T02:43:35.688Z,3.70
2022-08-07T02:46:09.521Z,4.00
2022-08-07T02:48:39.265Z,3.80
2022-08-07T02:51:41.989Z,3.10
2022-08-07T02:54:11.576Z,4.20
2022-08-07T02:56:42.916Z,3.60
2022-08-07T02:59:18.505Z,3.70
2022-08-07T03:01:55.211Z,4.00
2022-08-07T03:04:24.427Z,3.20
2022-08-07T03:06:53.740Z,2.50
2022-08-07T03:09:42.298Z,3.90
2022-08-07T03:12:22.336Z,3.60
2022-08-07T03:15:02.254Z,2.90
2022-08-07T03:17:53.395Z,3.20
2022-08-07T03:20:23.747Z,3.80
2022-08-07T03:22:53.797Z,3.10
2022-08-07T03:25:23.864Z,3.80
2022-08-07T03:27:59.345Z,3.30
2022-08-07T03:30:39.704Z,3.60
2022-08-07T03:33:11.067Z,3.30
2022-08-07T03:35:50.105Z,2.80
2022-08-07T03:38:27.482Z,4.00
2022-08-07T03:41:00.245Z,3.00
2022-08-07T03:43:32.425Z,3.10
2022-08-07T03:46:03.390Z,3.40
2022-08-07T03:48:34.130Z,2.30
2022-08-07T03:51:13.947Z,2.70
2022-08-07T03:54:05.651Z,3.00
2022-08-07T03:56:34.382Z,3.00
2022-08-07T03:59:09.385Z,2.30
2022-08-07T04:01:46.077Z,2.60
2022-08-07T04:04:17.716Z,3.00
2022-08-07T04:06:50.964Z,2.80
2022-08-07T04:09:23.029Z,2.70
2022-08-07T04:12:26.647Z,3.10
2022-08-07T04:14:43.766Z,3.30
2022-08-07T04:17:31.070Z,2.90
2022-08-07T04:20:05.626Z,3.50
2022-08-07T04:22:33.938Z,2.60
2022-08-07T04:25:02.280Z,2.90
2022-08-07T04:27:35.830Z,2.50
2022-08-07T04:30:20.944Z,3.00
2022-08-07T04:32:58.260Z,2.40
2022-08-07T04:35:27.014Z,2.70
2022-08-07T04:38:06.447Z,2.80
2022-08-07T04:40:52.027Z,2.80
2022-08-07T04:43:53.495Z,2.60
2022-08-07T04:47:04.283Z,3.30
2022-08-07T04:49:39.069Z,2.30
2022-08-07T04:52:46.952Z,2.60
2022-08-07T04:58:14.865Z,2.60
2022-08-07T05:01:50.482Z,2.70
2022-08-07T05:04:44.032Z,3.10
2022-08-07T05:07:22.043Z,2.80
2022-08-07T05:10:08.109Z,2.30
2022-08-07T05:12:51.510Z,2.10
2022-08-07T05:15:31.267Z,2.40
2022-08-07T05:18:08.729Z,3.00
2022-08-07T05:20:50.987Z,3.20
2022-08-07T05:23:31.036Z,2.60
2022-08-07T05:26:15.498Z,3.00
2022-08-07T05:28:51.418Z,2.70
2022-08-07T05:31:22.202Z,2.60
2022-08-07T05:34:04.681Z,3.00
2022-08-07T05:36:35.258Z,2.90
2022-08-07T05:40:05.841Z,3.70
2022-08-07T05:42:01.735Z,2.50
2022-08-07T05:44:36.503Z,2.00
2022-08-07T05:47:18.092Z,2.60
2022-08-07T05:49:49.444Z,3.10
2022-08-07T05:52:30.027Z,3.10
2022-08-07T05:55:10.144Z,2.90
2022-08-07T05:57:41.917Z,2.70
2022-08-07T06:00:16.443Z,3.20
2022-08-07T06:05:17.485Z,3.10
2022-08-07T06:08:13.204Z,2.90
2022-08-07T06:10:38.064Z,2.30
2022-08-07T06:13:06.524Z,2.80
2022-08-07T06:15:43.644Z,3.00
2022-08-07T06:18:14.399Z,2.80
2022-08-07T06:20:49.671Z,2.60
2022-08-07T06:23:46.558Z,2.90
2022-08-07T06:26:06.888Z,2.80
2022-08-07T06:28:48.977Z,2.80
2022-08-07T06:31:17.225Z,2.70
2022-08-07T06:33:46.979Z,2.90
2022-08-07T06:36:35.019Z,2.60
2022-08-07T06:40:17.766Z,2.60
2022-08-07T06:42:06.303Z,2.80
2022-08-07T06:44:39.571Z,2.90
2022-08-07T06:47:10.357Z,2.80
2022-08-07T06:49:52.172Z,3.10
2022-08-07T06:52:36.483Z,2.90
2022-08-07T06:55:32.013Z,3.20
2022-08-07T06:58:16.626Z,2.50
2022-08-07T07:00:52.800Z,2.80
2022-08-07T07:03:39.760Z,3.00
2022-08-07T07:06:11.496Z,2.80
2022-08-07T07:08:46.665Z,3.00
2022-08-07T07:12:09.095Z,2.90
2022-08-07T07:14:04.276Z,2.40
2022-08-07T07:16:50.068Z,3.10
2022-08-07T07:19:55.923Z,3.30
2022-08-07T07:22:35.971Z,2.70
2022-08-07T07:26:32.288Z,2.50
2022-08-07T07:28:07.486Z,3.10
2022-08-07T07:30:40.151Z,3.10
2022-08-07T07:33:13.610Z,2.60
2022-08-07T07:36:04.175Z,2.90
2022-08-07T07:38:34.995Z,2.90
2022-08-07T07:41:10.171Z,3.00
2022-08-07T07:46:40.330Z,2.90
2022-08-07T07:50:31.306Z,2.60
2022-08-07T07:51:59.632Z,2.90
2022-08-07T07:54:30.862Z,2.70
2022-08-07T07:57:03.071Z,3.20
2022-08-07T07:59:52.669Z,3.30
2022-08-07T08:02:34.044Z,3.10
2022-08-07T08:05:11.506Z,2.60
2022-08-07T08:07:59.543Z,3.40
2022-08-07T08:10:37.670Z,3.30
2022-08-07T08:13:10.350Z,3.00
2022-08-07T08:15:57.908Z,2.90
2022-08-07T08:18:30.149Z,2.90
2022-08-07T08:21:01.457Z,3.40
2022-08-07T08:23:52.805Z,3.10
2022-08-07T08:26:41.574Z,3.00
2022-08-07T08:29:12.566Z,2.80
2022-08-07T08:32:16.787Z,3.30
2022-08-07T08:34:33.135Z,2.80
2022-08-07T08:37:09.716Z,2.90
2022-08-07T08:39:55.129Z,3.30
2022-08-07T08:42:40.273Z,3.80
2022-08-07T08:45:41.535Z,3.20
2022-08-07T08:48:38.282Z,2.70
2022-08-07T08:52:13.392Z,3.20
2022-08-07T08:54:33.581Z,3.30
2022-08-07T08:57:07.819Z,3.00
2022-08-07T09:00:06.472Z,3.40
2022-08-07T09:02:41.710Z,3.20
2022-08-07T09:08:28.580Z,2.70
2022-08-07T09:11:00.180Z,2.90
2022-08-07T09:13:38.278Z,2.90
2022-08-07T09:16:24.060Z,3.30
2022-08-07T09:19:03.437Z,2.90
2022-08-07T09:22:09.701Z,3.10
2022-08-07T09:24:59.605Z,2.90
2022-08-07T09:27:30.449Z,3.40
2022-08-07T09:30:09.470Z,3.10
2022-08-07T09:32:56.755Z,3.30
2022-08-07T09:36:03.202Z,3.60
2022-08-07T09:38:50.190Z,3.20
2022-08-07T09:41:43.179Z,3.00
2022-08-07T09:45:03.367Z,2.90
2022-08-07T09:48:01.482Z,3.40
2022-08-07T09:52:09.381Z,3.20
2022-08-07T09:54:07.788Z,2.90
2022-08-07T09:57:01.729Z,3.10
2022-08-07T10:00:03.321Z,3.40
2022-08-07T10:03:09.930Z,3.20
2022-08-07T10:06:27.591Z,3.10
2022-08-07T10:09:58.846Z,3.40
2022-08-07T10:12:52.936Z,3.00
2022-08-07T10:15:53.315Z,3.30
2022-08-07T10:19:00.010Z,2.90
2022-08-07T10:22:16.182Z,3.30
2022-08-07T10:25:05.958Z,2.80
2022-08-07T10:28:21.195Z,3.10
2022-08-07T10:31:25.199Z,3.10
2022-08-07T10:34:32.194Z,3.40
2022-08-07T10:37:19.277Z,3.60
2022-08-07T10:40:17.808Z,2.80
2022-08-07T10:43:21.268Z,3.10
2022-08-07T10:46:26.883Z,3.90
2022-08-07T10:49:15.318Z,3.10
2022-08-07T10:52:16.467Z,2.90
2022-08-07T10:55:07.887Z,3.20
2022-08-07T10:57:59.555Z,3.00
2022-08-07T11:00:55.888Z,3.10
2022-08-07T11:03:52.815Z,3.20
2022-08-07T11:06:48.207Z,3.10
2022-08-07T11:10:10.185Z,3.30
2022-08-07T11:12:31.702Z,3.70
2022-08-07T11:15:20.826Z,2.90
2022-08-07T11:18:17.787Z,3.10
2022-08-07T11:21:09.599Z,3.30
2022-08-07T11:24:05.939Z,2.70
2022-08-07T11:27:04.500Z,3.20
2022-08-07T11:30:10.051Z,3.40
2022-08-07T11:33:08.087Z,3.10
2022-08-07T11:36:41.740Z,3.10
2022-08-07T11:40:00.245Z,3.00
2022-08-07T11:42:46.450Z,2.80
2022-08-07T11:48:58.910Z,3.20
2022-08-07T11:52:01.791Z,2.50
2022-08-07T11:54:34.718Z,3.40
2022-08-07T12:00:18.240Z,3.30
2022-08-07T12:03:05.080Z,3.50
2022-08-07T12:06:01.819Z,3.10
2022-08-07T12:09:23.300Z,3.10
2022-08-07T12:12:09.040Z,3.50
2022-08-07T12:15:35.791Z,3.10
2022-08-07T12:18:34.727Z,2.80
2022-08-07T12:21:55.585Z,3.20
2022-08-07T12:24:38.059Z,3.10
2022-08-07T12:27:17.616Z,3.00
2022-08-07T12:30:12.303Z,3.00
2022-08-07T12:33:09.286Z,3.20
2022-08-07T12:35:57.805Z,3.10
2022-08-07T12:38:42.822Z,3.10
2022-08-07T12:44:05.631Z,2.90
2022-08-07T12:47:21.815Z,3.40
2022-08-07T12:50:39.052Z,3.30
2022-08-07T12:54:24.046Z,3.20
2022-08-07T12:56:50.858Z,3.40
2022-08-07T12:59:33.360Z,2.80
2022-08-07T13:02:33.320Z,3.00
2022-08-07T13:06:02.578Z,3.10
2022-08-07T13:09:02.044Z,3.40
2022-08-07T13:12:10.259Z,3.40
2022-08-07T13:15:00.276Z,3.20
2022-08-07T13:17:42.505Z,3.20
2022-08-07T13:20:27.509Z,2.80
2022-08-07T13:24:04.339Z,3.20
2022-08-07T13:26:26.407Z,2.70
2022-08-07T13:29:12.198Z,3.40
2022-08-07T13:31:59.841Z,3.40
2022-08-07T13:34:44.750Z,3.10
2022-08-07T13:37:59.144Z,3.20
2022-08-07T13:40:58.143Z,3.50
2022-08-07T13:43:34.302Z,3.50
2022-08-07T13:46:22.186Z,3.70
2022-08-07T13:49:04.597Z,3.60
2022-08-07T13:52:05.127Z,3.60
2022-08-07T13:54:36.653Z,3.40
2022-08-07T13:57:23.925Z,2.80
2022-08-07T14:00:01.768Z,3.80
2022-08-07T14:02:39.527Z,3.30
2022-08-07T14:05:37.139Z,3.60
2022-08-07T14:08:11.821Z,3.30
2022-08-07T14:10:44.541Z,3.30
2022-08-07T14:13:39.341Z,3.30
2022-08-07T14:16:26.844Z,3.00
2022-08-07T14:19:10.550Z,3.40
2022-08-07T14:22:34.107Z,3.00
2022-08-07T14:25:29.480Z,3.70
2022-08-07T14:28:17.508Z,2.90
2022-08-07T14:30:55.991Z,3.40
2022-08-07T14:36:38.858Z,3.40
2022-08-07T14:40:18.233Z,3.20
2022-08-07T14:42:20.664Z,3.40
2022-08-07T14:48:07.134Z,2.90
2022-08-07T14:54:05.880Z,3.50
2022-08-07T14:56:29.519Z,4.00
2022-08-07T14:59:13.897Z,3.20
2022-08-07T15:02:34.328Z,3.80
2022-08-07T15:05:19.598Z,3.20
2022-08-07T15:08:03.379Z,3.70
2022-08-07T15:10:58.994Z,3.30
2022-08-07T15:13:45.742Z,3.50
2022-08-07T15:16:33.716Z,3.10
2022-08-07T15:19:16.944Z,3.50
2022-08-07T15:22:04.855Z,3.30
2022-08-07T15:25:17.550Z,3.10
2022-08-07T15:28:35.216Z,3.40
2022-08-07T15:31:12.730Z,3.30
2022-08-07T15:34:15.073Z,3.80
2022-08-07T15:40:01.097Z,3.50
2022-08-07T15:45:56.385Z,3.30
2022-08-07T15:49:12.271Z,3.30
2022-08-07T15:54:39.650Z,3.60
2022-08-07T15:57:39.867Z,3.60
2022-08-07T16:00:32.233Z,3.50
2022-08-07T16:03:21.850Z,3.50
2022-08-07T16:06:11.544Z,3.50
2022-08-07T16:08:49.680Z,3.60
2022-08-07T16:11:40.117Z,3.50
2022-08-07T16:14:24.002Z,3.50
2022-08-07T16:18:02.497Z,3.50
2022-08-07T16:20:34.626Z,3.60
2022-08-07T16:23:53.572Z,3.80
2022-08-07T16:27:18.151Z,3.40
2022-08-07T16:30:30.864Z,3.40
2022-08-07T16:34:02.644Z,3.30
2022-08-07T16:36:22.264Z,3.60
2022-08-07T16:39:56.622Z,3.70
2022-08-07T16:43:02.852Z,3.40
2022-08-07T16:46:47.583Z,3.80
2022-08-07T16:49:10.529Z,3.30
2022-08-07T16:52:51.418Z,4.00
2022-08-07T16:55:24.161Z,3.60
2022-08-07T16:59:10.698Z,3.70
2022-08-07T17:02:10.898Z,3.90
2022-08-07T17:04:58.627Z,3.70
2022-08-07T17:07:55.346Z,3.50
2022-08-07T17:10:33.637Z,3.90
2022-08-07T17:13:41.440Z,4.00
2022-08-07T17:16:25.174Z,4.10
2022-08-07T17:19:15.800Z,3.70
2022-08-07T17:21:58.923Z,4.00
2022-08-07T17:24:46.886Z,4.00
2022-08-07T17:27:50.962Z,3.80
2022-08-07T17:30:27.256Z,3.70
2022-08-07T17:34:09.338Z,4.60
2022-08-07T17:36:20.575Z,4.20
2022-08-07T17:38:54.339Z,3.90
2022-08-07T17:42:02.740Z,3.90
2022-08-07T17:44:58.422Z,3.90
2022-08-07T17:48:00.317Z,4.00
2022-08-07T17:50:46.930Z,3.60
2022-08-07T17:53:59.910Z,3.70
2022-08-07T17:56:49.922Z,4.00
2022-08-07T17:59:36.036Z,4.30
2022-08-07T18:02:34.452Z,4.10
2022-08-07T18:05:21.374Z,4.00
2022-08-07T18:12:07.151Z,4.10
2022-08-07T18:13:49.027Z,4.20
2022-08-07T18:16:33.023Z,3.40
2022-08-07T18:21:08.707Z,4.00
2022-08-07T18:22:16.997Z,4.20
2022-08-07T18:25:19.118Z,4.20
2022-08-07T18:28:12.402Z,4.40
2022-08-07T18:31:49.963Z,3.60
2022-08-07T18:35:01.945Z,3.80
2022-08-07T18:38:56.626Z,4.00
2022-08-07T18:43:57.480Z,4.10
2022-08-07T18:46:58.300Z,4.10
2022-08-07T18:50:31.522Z,4.30
2022-08-07T18:53:12.630Z,4.10
2022-08-07T18:56:12.767Z,4.40
2022-08-07T18:59:10.123Z,3.90
2022-08-07T19:02:32.103Z,3.50
2022-08-07T19:05:15.503Z,3.60
2022-08-07T19:08:04.002Z,3.30
2022-08-07T19:11:01.375Z,3.40
2022-08-07T19:13:50.201Z,3.10
2022-08-07T19:17:00.288Z,3.30
2022-08-07T19:19:37.824Z,3.60
2022-08-07T19:22:31.248Z,3.40
2022-08-07T19:25:06.875Z,3.50
2022-08-07T19:28:57.548Z,3.10
2022-08-07T19:31:05.485Z,3.60
2022-08-07T19:33:34.708Z,4.20
2022-08-07T19:36:05.245Z,3.70
2022-08-07T19:38:52.897Z,3.70
2022-08-07T19:41:39.093Z,3.30
2022-08-07T19:44:22.063Z,3.40
2022-08-07T19:46:57.660Z,3.80
2022-08-07T19:49:56.364Z,3.80
2022-08-07T19:52:22.482Z,3.30
2022-08-07T19:54:57.243Z,3.30
2022-08-07T19:57:59.840Z,3.20
2022-08-07T20:00:30.763Z,3.70
2022-08-07T20:03:34.024Z,3.50
2022-08-07T20:06:15.237Z,3.20
2022-08-07T20:08:50.896Z,3.70
2022-08-07T20:12:00.956Z,3.40
2022-08-07T20:14:36.950Z,3.10
2022-08-07T20:17:23.962Z,3.00
2022-08-07T20:19:58.644Z,3.60
2022-08-07T20:22:34.079Z,3.20
2022-08-07T20:25:19.863Z,3.00
2022-08-07T20:27:58.672Z,2.90
2022-08-07T20:30:35.737Z,3.30
2022-08-07T20:33:08.918Z,2.90
2022-08-07T20:36:01.380Z,2.90
2022-08-07T20:38:34.801Z,3.10
2022-08-07T20:41:05.698Z,3.20
2022-08-07T20:43:35.803Z,3.30
2022-08-07T20:46:27.530Z,2.90
2022-08-07T20:50:00.200Z,3.10
2022-08-07T20:51:56.035Z,2.80
2022-08-07T20:54:30.259Z,2.80
2022-08-07T20:57:08.386Z,3.20
2022-08-07T21:00:06.405Z,3.20
2022-08-07T21:02:55.539Z,2.80
2022-08-07T21:05:54.620Z,3.00
2022-08-07T21:08:53.474Z,2.90
2022-08-07T21:11:29.032Z,3.00
2022-08-07T21:14:33.006Z,2.90
2022-08-07T21:18:03.984Z,3.20
2022-08-07T21:20:06.850Z,3.00
2022-08-07T21:22:53.650Z,3.20
2022-08-07T21:25:24.711Z,3.20
2022-08-07T21:28:49.267Z,3.30
2022-08-07T21:32:42.349Z,2.70
2022-08-07T21:34:48.747Z,3.20
2022-08-07T21:37:57.923Z,2.90
2022-08-07T21:40:35.973Z,3.30
2022-08-07T21:43:55.432Z,3.30
2022-08-07T21:46:59.137Z,3.60
2022-08-07T21:50:00.919Z,3.00
2022-08-07T21:52:45.563Z,3.10
2022-08-07T21:55:29.790Z,3.00
2022-08-07T21:58:30.567Z,2.60
2022-08-07T22:02:11.246Z,3.10
2022-08-07T22:04:53.495Z,2.80
2022-08-07T22:07:31.810Z,2.90
2022-08-07T22:10:21.493Z,2.90
2022-08-07T22:12:55.339Z,3.10
2022-08-07T22:16:39.712Z,3.40
2022-08-07T22:18:44.255Z,3.00
2022-08-07T22:22:01.812Z,3.00
2022-08-07T22:24:33.143Z,3.30
2022-08-07T22:27:34.098Z,3.20
2022-08-07T22:30:26.419Z,2.90
2022-08-07T22:33:11.787Z,2.60
2022-08-07T22:35:56.657Z,3.00
2022-08-07T22:38:35.845Z,2.90
2022-08-07T22:41:20.065Z,3.10
2022-08-07T22:43:58.211Z,3.00
2022-08-07T22:47:14.927Z,3.10
2022-08-07T22:50:20.715Z,2.80
2022-08-07T22:54:06.429Z,3.10
2022-08-07T22:56:54.891Z,3.40
2022-08-07T22:59:43.506Z,3.20
2022-08-07T23:02:36.883Z,3.00
2022-08-07T23:06:08.600Z,3.00
2022-08-07T23:08:22.286Z,3.20
2022-08-07T23:11:21.629Z,2.90
2022-08-07T23:17:15.456Z,3.00
2022-08-07T23:20:51.245Z,2.80
2022-08-07T23:24:05.887Z,3.20
2022-08-07T23:26:18.521Z,3.10
2022-08-07T23:29:04.217Z,3.00
2022-08-07T23:34:23.538Z,3.40
2022-08-07T23:35:18.670Z,3.00
2022-08-07T23:38:06.011Z,3.00
2022-08-07T23:41:11.430Z,3.30
2022-08-07T23:44:18.152Z,3.40
2022-08-07T23:46:59.814Z,3.10
2022-08-07T23:50:17.332Z,3.40
2022-08-07T23:53:05.524Z,3.10
2022-08-07T23:56:07.652Z,3.30
2022-08-07T23:58:49.053Z,3.00
